createdAt,value
2023-01-29T05:02:56.780Z,99968.69
2023-01-29T05:07:11.994Z,99981.88
2023-01-29T05:11:25.117Z,99981.88
2023-01-29T05:15:45.276Z,99984.66
2023-01-29T05:19:57.167Z,99988.28
2023-01-29T05:24:18.971Z,99986.50
2023-01-29T05:28:30.675Z,99975.88
2023-01-29T05:32:42.112Z,99988.00
2023-01-29T05:36:53.613Z,99981.31
2023-01-29T05:41:05.400Z,99975.38
2023-01-29T05:45:18.605Z,99982.16
2023-01-29T05:49:30.121Z,99993.53
2023-01-29T05:53:41.600Z,99992.88
2023-01-29T05:57:53.057Z,99987.88
2023-01-29T06:02:04.586Z,99980.31
2023-01-29T06:06:16.951Z,99973.59
2023-01-29T06:10:28.423Z,99971.03
2023-01-29T06:14:39.856Z,99987.09
2023-01-29T06:18:51.285Z,99977.78
2023-01-29T06:23:02.807Z,99993.97
2023-01-29T06:27:14.528Z,100000.97
2023-01-29T06:31:38.488Z,99997.72
2023-01-29T06:35:56.006Z,99996.81
2023-01-29T06:40:08.302Z,99991.91
2023-01-29T06:44:19.858Z,99985.06
2023-01-29T06:48:31.405Z,99986.78
2023-01-29T06:52:42.847Z,99988.63
2023-01-29T06:56:54.346Z,99984.25
2023-01-29T07:01:11.711Z,99978.44
2023-01-29T07:05:25.310Z,99976.03
2023-01-29T07:09:36.761Z,99976.25
2023-01-29T07:13:48.209Z,99989.06
2023-01-29T07:18:01.583Z,99994.06
2023-01-29T07:22:13.209Z,100009.41
2023-01-29T07:26:24.756Z,100002.56
2023-01-29T07:30:42.118Z,99999.25
2023-01-29T07:34:53.768Z,99995.69
2023-01-29T07:39:05.353Z,99999.88
2023-01-29T07:43:17.055Z,100009.00
2023-01-29T07:47:28.517Z,100011.84
2023-01-29T07:51:40.093Z,100008.06
2023-01-29T07:55:51.657Z,100007.75
2023-01-29T08:00:03.446Z,100021.66
2023-01-29T08:04:23.750Z,100011.31
2023-01-29T08:08:35.271Z,100017.38
2023-01-29T08:12:46.888Z,100030.16
2023-01-29T08:16:58.398Z,100032.72
2023-01-29T08:21:10.343Z,100041.03
2023-01-29T08:25:23.177Z,100051.91
2023-01-29T08:29:35.184Z,100049.38
2023-01-29T08:33:47.146Z,100033.59
2023-01-29T08:38:01.303Z,100040.16
2023-01-29T08:42:12.853Z,100051.81
2023-01-29T08:46:24.409Z,100035.16
2023-01-29T08:50:36.844Z,100039.81
2023-01-29T08:54:48.418Z,100035.13
2023-01-29T08:58:59.976Z,100042.69
2023-01-29T09:03:11.460Z,100042.63
2023-01-29T09:07:22.975Z,100016.88
2023-01-29T09:11:34.463Z,100004.19
2023-01-29T09:15:46.532Z,100005.84
2023-01-29T09:19:58.685Z,99995.72
2023-01-29T09:24:10.786Z,99985.44
2023-01-29T09:28:22.320Z,99990.13
2023-01-29T09:32:52.758Z,99984.16
2023-01-29T09:37:05.017Z,99999.50
2023-01-29T09:41:56.363Z,100002.56
2023-01-29T09:46:18.042Z,100005.16
2023-01-29T09:50:40.957Z,100008.94
2023-01-29T09:55:10.999Z,99997.66
2023-01-29T09:59:25.062Z,100012.63
2023-01-29T10:03:51.753Z,100007.28
2023-01-29T10:08:20.235Z,99994.41
2023-01-29T10:12:52.158Z,100003.19
2023-01-29T10:17:35.584Z,100000.38
2023-01-29T10:22:00.709Z,100005.09
2023-01-29T10:26:13.464Z,100013.22
2023-01-29T10:30:40.277Z,100009.31
2023-01-29T10:35:02.946Z,100006.00
2023-01-29T10:39:26.012Z,100010.53
2023-01-29T10:44:05.430Z,100012.13
2023-01-29T10:48:35.345Z,100010.69
2023-01-29T10:53:27.423Z,100003.78
2023-01-29T10:58:02.742Z,99993.81
2023-01-29T11:02:18.031Z,99985.09
2023-01-29T11:06:32.504Z,99979.59
2023-01-29T11:10:55.860Z,99973.06
2023-01-29T11:15:28.359Z,99969.66
2023-01-29T11:19:45.970Z,99961.00
2023-01-29T11:24:17.537Z,99962.94
2023-01-29T11:28:40.812Z,99941.75
2023-01-29T11:33:19.472Z,99922.72
2023-01-29T11:37:40.263Z,99906.03
2023-01-29T11:42:00.644Z,99891.28
2023-01-29T11:46:15.486Z,99891.28
2023-01-29T11:50:33.464Z,99889.63
2023-01-29T11:54:58.758Z,99877.78
2023-01-29T11:59:25.931Z,99871.34
2023-01-29T12:03:43.749Z,99857.81
2023-01-29T12:07:59.895Z,99845.47
2023-01-29T12:12:28.640Z,99853.06
2023-01-29T12:16:48.747Z,99847.81
2023-01-29T12:21:26.889Z,99843.50
2023-01-29T12:26:05.017Z,99834.72
2023-01-29T12:30:25.768Z,99838.25
2023-01-29T12:34:48.338Z,99834.66
2023-01-29T12:39:00.004Z,99827.84
2023-01-29T12:43:21.112Z,99823.44
2023-01-29T12:47:43.784Z,99823.41
2023-01-29T12:52:07.459Z,99815.66
2023-01-29T12:56:39.579Z,99807.13
2023-01-29T13:00:56.693Z,99802.06
2023-01-29T13:05:30.991Z,99793.28
2023-01-29T13:09:50.656Z,99781.19
2023-01-29T13:14:13.630Z,99776.59
2023-01-29T13:18:47.821Z,99782.25
2023-01-29T13:23:12.801Z,99778.94
2023-01-29T13:27:27.724Z,99770.91
2023-01-29T13:31:41.105Z,99773.91
2023-01-29T13:35:59.372Z,99765.59
2023-01-29T13:40:25.660Z,99767.56
2023-01-29T13:44:39.869Z,99770.22
2023-01-29T13:48:54.582Z,99762.41
2023-01-29T13:53:08.782Z,99767.75
2023-01-29T13:57:33.952Z,99771.53
2023-01-29T14:01:48.520Z,99761.88
2023-01-29T14:06:01.043Z,99768.84
2023-01-29T14:10:22.874Z,99765.00
2023-01-29T14:15:05.634Z,99769.50
2023-01-29T14:19:19.121Z,99757.13
2023-01-29T14:23:36.608Z,99758.31
2023-01-29T14:27:49.188Z,99741.75
2023-01-29T14:32:06.655Z,99735.88
2023-01-29T14:36:18.267Z,99731.09
2023-01-29T14:40:31.021Z,99731.47
2023-01-29T14:44:45.645Z,99732.22
2023-01-29T14:48:57.155Z,99736.28
2023-01-29T14:53:24.202Z,99738.56
2023-01-29T14:57:36.727Z,99733.50
2023-01-29T15:01:54.690Z,99737.34
2023-01-29T15:06:09.772Z,99739.88
2023-01-29T15:10:48.043Z,99755.88
2023-01-29T15:15:06.146Z,99744.56
2023-01-29T15:19:29.433Z,99735.75
2023-01-29T15:23:41.285Z,99746.91
2023-01-29T15:27:56.648Z,99742.09
2023-01-29T15:32:31.168Z,99747.84
2023-01-29T15:36:42.747Z,99756.84
2023-01-29T15:41:00.174Z,99758.94
2023-01-29T15:45:22.787Z,99754.50
2023-01-29T15:49:39.391Z,99755.53
2023-01-29T15:53:54.740Z,99752.56
2023-01-29T15:58:13.541Z,99753.97
2023-01-29T16:02:45.350Z,99755.31
2023-01-29T16:06:58.817Z,99746.19
2023-01-29T16:11:10.669Z,99743.44
2023-01-29T16:15:32.887Z,99737.72
2023-01-29T16:19:44.342Z,99729.34
2023-01-29T16:23:59.119Z,99720.91
2023-01-29T16:28:11.111Z,99726.69
2023-01-29T16:32:22.824Z,99730.28
2023-01-29T16:36:34.828Z,99724.03
2023-01-29T16:41:07.030Z,99724.09
2023-01-29T16:45:30.612Z,99724.66
2023-01-29T16:49:49.630Z,99732.09
2023-01-29T16:54:13.501Z,99725.44
2023-01-29T16:58:28.084Z,99730.81
2023-01-29T17:02:39.854Z,99732.69
2023-01-29T17:06:57.655Z,99729.47
2023-01-29T17:11:11.549Z,99726.38
2023-01-29T17:15:44.763Z,99721.53
2023-01-29T17:19:57.621Z,99725.03
2023-01-29T17:24:09.116Z,99738.16
2023-01-29T17:28:20.574Z,99735.97
2023-01-29T17:32:42.242Z,99739.50
2023-01-29T17:36:57.209Z,99738.75
2023-01-29T17:41:15.702Z,99741.31
2023-01-29T17:45:27.526Z,99732.28
2023-01-29T17:49:39.059Z,99742.84
2023-01-29T17:53:50.511Z,99738.38
2023-01-29T17:58:01.939Z,99746.47
2023-01-29T18:02:28.831Z,99760.19
2023-01-29T18:06:42.488Z,99762.00
2023-01-29T18:10:53.946Z,99760.41
2023-01-29T18:15:05.823Z,99765.06
2023-01-29T18:19:23.180Z,99772.09
2023-01-29T18:23:34.676Z,99765.31
2023-01-29T18:27:46.231Z,99766.03
2023-01-29T18:31:57.968Z,99772.25
2023-01-29T18:36:09.527Z,99763.47
2023-01-29T18:40:20.979Z,99757.63
2023-01-29T18:44:32.516Z,99759.41
2023-01-29T18:48:44.115Z,99761.50
2023-01-29T18:52:55.590Z,99751.22
2023-01-29T18:57:14.647Z,99751.72
2023-01-29T19:01:27.294Z,99752.00
2023-01-29T19:05:38.805Z,99755.00
2023-01-29T19:09:50.422Z,99741.13
2023-01-29T19:14:01.843Z,99743.69
2023-01-29T19:18:14.680Z,99748.00
2023-01-29T19:22:26.335Z,99742.94
2023-01-29T19:26:37.838Z,99746.94
2023-01-29T19:30:49.392Z,99739.75
2023-01-29T19:35:00.894Z,99742.53
2023-01-29T19:39:12.549Z,99732.25
2023-01-29T19:43:24.068Z,99729.63
2023-01-29T19:47:41.044Z,99733.50
2023-01-29T19:51:52.745Z,99723.16
2023-01-29T19:56:11.053Z,99719.78
2023-01-29T20:00:22.532Z,99724.91
2023-01-29T20:04:34.202Z,99720.00
2023-01-29T20:08:46.596Z,99727.25
2023-01-29T20:12:58.035Z,99730.72
2023-01-29T20:17:09.484Z,99734.34
2023-01-29T20:21:21.992Z,99733.13
2023-01-29T20:25:35.536Z,99738.44
2023-01-29T20:29:47.017Z,99747.34
2023-01-29T20:33:58.458Z,99742.41
2023-01-29T20:38:09.893Z,99732.38
2023-01-29T20:42:21.365Z,99737.69
2023-01-29T20:46:35.076Z,99733.63
2023-01-29T20:50:46.539Z,99735.97
2023-01-29T20:54:57.983Z,99731.06
2023-01-29T20:59:09.499Z,99722.31
2023-01-29T21:03:21.114Z,99713.88
2023-01-29T21:07:32.898Z,99700.50
2023-01-29T21:11:47.258Z,99697.06
2023-01-29T21:15:59.095Z,99688.69
2023-01-29T21:20:11.127Z,99681.91
2023-01-29T21:24:22.613Z,99697.78
2023-01-29T21:28:34.541Z,99684.06
2023-01-29T21:32:46.178Z,99671.91
2023-01-29T21:36:57.738Z,99674.47
2023-01-29T21:41:09.639Z,99669.97
2023-01-29T21:45:21.333Z,99670.03
2023-01-29T21:49:32.791Z,99657.00
2023-01-29T21:53:44.254Z,99663.72
2023-01-29T21:57:55.825Z,99659.41
2023-01-29T22:02:13.812Z,99649.66
2023-01-29T22:06:25.510Z,99634.81
2023-01-29T22:10:37.587Z,99642.59
2023-01-29T22:14:49.508Z,99649.50
2023-01-29T22:19:01.019Z,99629.63
2023-01-29T22:23:12.722Z,99612.19
2023-01-29T22:27:25.285Z,99624.72
